Caribou Municipal Airport Caribou US
ICAO: KCAR
IATA: CAR
Category: Medium
Scheduled Services: No

Elevation: 626 ft
TransAlt. 18000 ft.

Airport Communications:
ASOS:135.125
BOSTON CNTR:124.75
BANGOR RDO:122.3
CTAF/UNICOM:122.8

KCAR Zoom In..

If Map Doesn't Load, Click Here

Runways:

(A) RW 01 length 4003 ft width 100 ft
---- / hdg 7

(B) RW 11 length 3016 ft width 75 ft
---- / hdg 107

(C) RW 19 length 4003 ft width 100 ft
---- / hdg 187

(D) RW 29 length 3016 ft width 75 ft
---- / hdg 287

Location; KCAR
Day. 26 / Time. 10.54 Zulu
* Altimeter: 29.94
* Temperature: 14° c. 57.2°f.
* Wind from: 180° Speed 09 kn.
Dewpoint: 13° c.
Visibility: 10 Statute Miles.
Clouds: Overcast 500 ft.

KCAR 261054Z AUTO 18009KT 10SM OVC005 14/13 A2994 RMK AO2 SLP145 T01390128


Wind From 180°
Speed 09 kn.

 
 
jpsmedia.com for Web Design worldairports.se 2018   terms of use